Colorado Springs, CO (80916)

6:13 AM MDT on July 27, 2016 (GMT -0600)
Soaring Eagles | | Change Station

Elev 5991 ft 38.79 °N, 104.74 °W | Updated 1 minute ago

Mostly Cloudy
Mostly Cloudy
58.6 °F
Feels Like 58.6 °F
N
0.0
Wind Variable Wind from North
Gusts 0.0 mph

Today
High -- | Low -- °F
--% Chance of Precip.
Yesterday
High -- | Low -- °F
Precip. -- in
Pressure 30.03 in
Visibility 10.0 miles
Clouds Few 1000 ft
Mostly Cloudy 1400 ft
Dew Point 54 °F
Humidity 85%
Rainfall 0.00 in
Snow Depth Not available.
5:56 AM 8:14 PM
Last Quarter, 44% visible
METAR KCOS 271154Z 02004KT 10SM FEW010 BKN014 14/12 A3028 RMK AO2 SLP167 T01440122 10206 20144 53001
Pressure 30.03 in
Visibility 10.0 miles
Clouds Few 1000 ft
Mostly Cloudy 1400 ft
Dew Point 54 °F
Humidity 85%
Rainfall 0.00 in
Snow Depth Not available.
5:56 AM 8:14 PM
Last Quarter, 44% visible
METAR KCOS 271154Z 02004KT 10SM FEW010 BKN014 14/12 A3028 RMK AO2 SLP167 T01440122 10206 20144 53001

10-Day Weather Forecast

Almanac

Astronomy

Jul. 27, 2016 Rise Set
Actual Time
Civil Twilight
Nautical Twilight
Astronomical Twilight
Moon
Length of Visible Light
Length of Day
Tomorrow will be .
, % of the Moon is Illuminated

Today's Extremes

State Highs State Lows

Community

WunderPhotos

Upload Photos

1,927,836 photos uploaded!

WunderBlog® & News

Nearby

Air Quality

  Air Quality AQ Index Pollutant
Not available.

Snow Depth

Station Depth Elevation

Earthquake Activity

City Distance Mag. Time & Date
Minimum magnitude displayed is 2.5.

Coastal Water Temperatures

Place Temperature

Stations

Nearby Weather Stations

Station Location Temp. Windchill Dew Point Humidity Wind Precip. Elev Updated Type
                   

Watches & Warnings

There are currently no watches in effect.